sensor_id;sensor_type;location;lat;lon;timestamp;temperature;humidity
63771;DHT22;60282;43.862;18.430;2023-08-30T00:00:52;21.90;99.90
63771;DHT22;60282;43.862;18.430;2023-08-30T00:03:18;21.60;99.90
63771;DHT22;60282;43.862;18.430;2023-08-30T00:05:45;21.10;99.90
63771;DHT22;60282;43.862;18.430;2023-08-30T00:08:11;21.00;99.90
63771;DHT22;60282;43.862;18.430;2023-08-30T00:10:39;20.60;99.90
63771;DHT22;60282;43.862;18.430;2023-08-30T00:13:08;20.60;99.90
63771;DHT22;60282;43.862;18.430;2023-08-30T00:15:34;20.50;99.90
63771;DHT22;60282;43.862;18.430;2023-08-30T00:18:00;20.30;99.90
63771;DHT22;60282;43.862;18.430;2023-08-30T00:20:28;20.10;99.90
63771;DHT22;60282;43.862;18.430;2023-08-30T00:22:55;19.60;99.90
63771;DHT22;60282;43.862;18.430;2023-08-30T00:25:22;19.70;99.90
63771;DHT22;60282;43.862;18.430;2023-08-30T00:27:48;19.40;99.90
63771;DHT22;60282;43.862;18.430;2023-08-30T00:30:14;19.20;99.90
63771;DHT22;60282;43.862;18.430;2023-08-30T00:32:42;19.20;99.90
63771;DHT22;60282;43.862;18.430;2023-08-30T00:35:10;19.20;99.90
63771;DHT22;60282;43.862;18.430;2023-08-30T00:37:37;19.30;99.90
63771;DHT22;60282;43.862;18.430;2023-08-30T00:40:05;19.10;99.90
63771;DHT22;60282;43.862;18.430;2023-08-30T00:42:34;19.30;99.90
63771;DHT22;60282;43.862;18.430;2023-08-30T00:45:00;19.10;99.90
63771;DHT22;60282;43.862;18.430;2023-08-30T00:47:27;17.50;99.90
63771;DHT22;60282;43.862;18.430;2023-08-30T00:49:54;18.80;99.90
63771;DHT22;60282;43.862;18.430;2023-08-30T00:52:22;18.70;99.90
63771;DHT22;60282;43.862;18.430;2023-08-30T00:54:48;18.70;99.90
63771;DHT22;60282;43.862;18.430;2023-08-30T00:57:16;16.60;99.90
63771;DHT22;60282;43.862;18.430;2023-08-30T00:59:49;19.10;99.90
63771;DHT22;60282;43.862;18.430;2023-08-30T01:02:17;18.60;99.90
63771;DHT22;60282;43.862;18.430;2023-08-30T01:04:45;18.70;99.90
63771;DHT22;60282;43.862;18.430;2023-08-30T01:07:12;19.10;99.90
63771;DHT22;60282;43.862;18.430;2023-08-30T01:09:41;19.90;99.90
63771;DHT22;60282;43.862;18.430;2023-08-30T01:12:22;20.40;99.90
63771;DHT22;60282;43.862;18.430;2023-08-30T01:15:06;20.00;99.90
63771;DHT22;60282;43.862;18.430;2023-08-30T01:17:36;20.30;99.90
63771;DHT22;60282;43.862;18.430;2023-08-30T01:20:05;20.00;99.90
63771;DHT22;60282;43.862;18.430;2023-08-30T01:26:29;19.60;99.90
63771;DHT22;60282;43.862;18.430;2023-08-30T01:29:01;19.80;99.90
63771;DHT22;60282;43.862;18.430;2023-08-30T01:31:28;20.30;99.90
63771;DHT22;60282;43.862;18.430;2023-08-30T01:33:56;22.30;99.90
63771;DHT22;60282;43.862;18.430;2023-08-30T01:38:49;21.00;99.90
63771;DHT22;60282;43.862;18.430;2023-08-30T01:41:16;21.10;99.90
63771;DHT22;60282;43.862;18.430;2023-08-30T01:43:43;21.10;99.90
63771;DHT22;60282;43.862;18.430;2023-08-30T01:46:10;21.20;99.90
63771;DHT22;60282;43.862;18.430;2023-08-30T01:48:37;20.90;99.90
63771;DHT22;60282;43.862;18.430;2023-08-30T01:51:05;20.90;99.90
63771;DHT22;60282;43.862;18.430;2023-08-30T01:53:32;21.00;99.90
63771;DHT22;60282;43.862;18.430;2023-08-30T01:55:58;21.00;99.90
63771;DHT22;60282;43.862;18.430;2023-08-30T01:58:24;21.80;99.90
63771;DHT22;60282;43.862;18.430;2023-08-30T02:01:10;21.30;99.90
63771;DHT22;60282;43.862;18.430;2023-08-30T02:03:36;21.40;99.90
63771;DHT22;60282;43.862;18.430;2023-08-30T02:06:11;21.30;99.90
63771;DHT22;60282;43.862;18.430;2023-08-30T02:08:55;21.30;99.90
63771;DHT22;60282;43.862;18.430;2023-08-30T02:11:23;21.30;99.90
63771;DHT22;60282;43.862;18.430;2023-08-30T02:13:54;21.40;99.90
63771;DHT22;60282;43.862;18.430;2023-08-30T02:16:21;21.40;99.90
63771;DHT22;60282;43.862;18.430;2023-08-30T02:18:49;21.30;99.90
63771;DHT22;60282;43.862;18.430;2023-08-30T02:21:16;21.50;99.90
63771;DHT22;60282;43.862;18.430;2023-08-30T02:23:42;21.40;99.90
63771;DHT22;60282;43.862;18.430;2023-08-30T02:26:08;20.90;99.90
63771;DHT22;60282;43.862;18.430;2023-08-30T02:28:34;20.80;99.90
63771;DHT22;60282;43.862;18.430;2023-08-30T02:31:01;20.70;99.90
63771;DHT22;60282;43.862;18.430;2023-08-30T02:33:27;20.80;99.90
63771;DHT22;60282;43.862;18.430;2023-08-30T02:35:55;21.00;99.90
63771;DHT22;60282;43.862;18.430;2023-08-30T02:38:22;21.10;99.90
63771;DHT22;60282;43.862;18.430;2023-08-30T02:40:49;20.60;99.90
63771;DHT22;60282;43.862;18.430;2023-08-30T02:43:16;20.50;99.90
63771;DHT22;60282;43.862;18.430;2023-08-30T02:45:42;20.20;99.90
63771;DHT22;60282;43.862;18.430;2023-08-30T02:48:08;20.00;99.90
63771;DHT22;60282;43.862;18.430;2023-08-30T02:50:35;20.00;99.90
63771;DHT22;60282;43.862;18.430;2023-08-30T02:53:01;19.80;99.90
63771;DHT22;60282;43.862;18.430;2023-08-30T02:55:30;19.90;99.90
63771;DHT22;60282;43.862;18.430;2023-08-30T02:57:57;16.90;99.90
63771;DHT22;60282;43.862;18.430;2023-08-30T03:00:23;20.40;99.90
63771;DHT22;60282;43.862;18.430;2023-08-30T03:02:50;20.10;99.90
63771;DHT22;60282;43.862;18.430;2023-08-30T03:05:17;20.20;99.90
63771;DHT22;60282;43.862;18.430;2023-08-30T03:07:43;20.30;99.90
63771;DHT22;60282;43.862;18.430;2023-08-30T03:10:11;20.20;99.90
63771;DHT22;60282;43.862;18.430;2023-08-30T03:12:37;19.90;99.90
63771;DHT22;60282;43.862;18.430;2023-08-30T03:15:04;20.10;99.90
63771;DHT22;60282;43.862;18.430;2023-08-30T03:17:31;20.20;99.90
63771;DHT22;60282;43.862;18.430;2023-08-30T03:19:57;20.70;99.90
63771;DHT22;60282;43.862;18.430;2023-08-30T03:22:24;20.80;99.90
63771;DHT22;60282;43.862;18.430;2023-08-30T03:24:51;21.10;99.90
63771;DHT22;60282;43.862;18.430;2023-08-30T03:27:18;20.70;99.90
63771;DHT22;60282;43.862;18.430;2023-08-30T03:29:45;21.00;99.90
63771;DHT22;60282;43.862;18.430;2023-08-30T03:32:16;20.70;99.90
63771;DHT22;60282;43.862;18.430;2023-08-30T03:34:46;20.80;99.90
63771;DHT22;60282;43.862;18.430;2023-08-30T03:37:14;20.90;99.90
63771;DHT22;60282;43.862;18.430;2023-08-30T03:39:43;20.80;99.90
63771;DHT22;60282;43.862;18.430;2023-08-30T03:42:09;20.90;99.90
63771;DHT22;60282;43.862;18.430;2023-08-30T03:44:38;21.00;99.90
63771;DHT22;60282;43.862;18.430;2023-08-30T03:47:04;22.20;99.90
63771;DHT22;60282;43.862;18.430;2023-08-30T03:49:31;21.10;99.90
63771;DHT22;60282;43.862;18.430;2023-08-30T03:51:57;21.40;99.90
63771;DHT22;60282;43.862;18.430;2023-08-30T03:54:23;20.40;99.90
63771;DHT22;60282;43.862;18.430;2023-08-30T03:56:49;19.90;99.90
63771;DHT22;60282;43.862;18.430;2023-08-30T03:59:17;20.40;99.90
63771;DHT22;60282;43.862;18.430;2023-08-30T04:01:44;22.20;99.90
63771;DHT22;60282;43.862;18.430;2023-08-30T04:04:10;20.60;99.90
63771;DHT22;60282;43.862;18.430;2023-08-30T04:06:37;20.60;99.90
63771;DHT22;60282;43.862;18.430;2023-08-30T04:09:03;20.70;99.90
63771;DHT22;60282;43.862;18.430;2023-08-30T04:11:30;20.80;99.90
63771;DHT22;60282;43.862;18.430;2023-08-30T04:13:56;20.90;99.90
63771;DHT22;60282;43.862;18.430;2023-08-30T04:16:23;21.00;99.90
63771;DHT22;60282;43.862;18.430;2023-08-30T04:28:36;20.20;99.90
63771;DHT22;60282;43.862;18.430;2023-08-30T04:31:10;20.50;99.90
63771;DHT22;60282;43.862;18.430;2023-08-30T04:33:36;20.20;99.90
63771;DHT22;60282;43.862;18.430;2023-08-30T04:36:03;20.20;99.90
63771;DHT22;60282;43.862;18.430;2023-08-30T04:38:29;20.30;99.90
63771;DHT22;60282;43.862;18.430;2023-08-30T04:40:59;20.40;99.90
63771;DHT22;60282;43.862;18.430;2023-08-30T04:43:25;20.50;99.90
63771;DHT22;60282;43.862;18.430;2023-08-30T04:45:51;20.20;99.90
63771;DHT22;60282;43.862;18.430;2023-08-30T04:48:19;18.90;99.90
63771;DHT22;60282;43.862;18.430;2023-08-30T04:51:04;20.70;99.90
63771;DHT22;60282;43.862;18.430;2023-08-30T04:53:31;20.50;99.90
63771;DHT22;60282;43.862;18.430;2023-08-30T04:55:58;20.30;99.90
63771;DHT22;60282;43.862;18.430;2023-08-30T04:58:24;20.20;99.90
63771;DHT22;60282;43.862;18.430;2023-08-30T05:00:50;20.00;99.90
63771;DHT22;60282;43.862;18.430;2023-08-30T05:03:17;20.30;99.90
63771;DHT22;60282;43.862;18.430;2023-08-30T05:05:48;20.50;99.90
63771;DHT22;60282;43.862;18.430;2023-08-30T05:08:13;18.20;99.90
63771;DHT22;60282;43.862;18.430;2023-08-30T05:10:40;20.80;99.90
63771;DHT22;60282;43.862;18.430;2023-08-30T05:15:32;20.90;99.90
63771;DHT22;60282;43.862;18.430;2023-08-30T05:20:25;21.00;99.90
63771;DHT22;60282;43.862;18.430;2023-08-30T05:22:51;20.80;99.90
63771;DHT22;60282;43.862;18.430;2023-08-30T05:27:44;20.00;99.90
63771;DHT22;60282;43.862;18.430;2023-08-30T05:30:12;19.70;99.90
63771;DHT22;60282;43.862;18.430;2023-08-30T05:32:38;19.60;99.90
63771;DHT22;60282;43.862;18.430;2023-08-30T05:35:05;19.50;99.90
63771;DHT22;60282;43.862;18.430;2023-08-30T05:37:31;19.60;99.90
63771;DHT22;60282;43.862;18.430;2023-08-30T05:39:57;19.90;99.90
63771;DHT22;60282;43.862;18.430;2023-08-30T05:42:24;20.10;99.90
63771;DHT22;60282;43.862;18.430;2023-08-30T05:47:16;20.00;99.90
63771;DHT22;60282;43.862;18.430;2023-08-30T05:49:44;20.00;99.90
63771;DHT22;60282;43.862;18.430;2023-08-30T05:52:11;19.90;99.90
63771;DHT22;60282;43.862;18.430;2023-08-30T05:54:37;20.40;99.90
63771;DHT22;60282;43.862;18.430;2023-08-30T05:57:03;19.30;99.90
63771;DHT22;60282;43.862;18.430;2023-08-30T05:59:29;19.40;99.90
63771;DHT22;60282;43.862;18.430;2023-08-30T06:01:57;19.50;99.90
63771;DHT22;60282;43.862;18.430;2023-08-30T06:04:23;21.30;99.90
63771;DHT22;60282;43.862;18.430;2023-08-30T06:06:49;19.40;99.90
63771;DHT22;60282;43.862;18.430;2023-08-30T06:09:15;19.70;99.90
63771;DHT22;60282;43.862;18.430;2023-08-30T06:11:43;19.90;99.90
63771;DHT22;60282;43.862;18.430;2023-08-30T06:14:09;20.00;99.90
63771;DHT22;60282;43.862;18.430;2023-08-30T06:16:35;20.10;99.90
63771;DHT22;60282;43.862;18.430;2023-08-30T06:21:27;20.50;99.90
63771;DHT22;60282;43.862;18.430;2023-08-30T06:23:53;20.60;99.90
63771;DHT22;60282;43.862;18.430;2023-08-30T06:26:22;20.60;99.90
63771;DHT22;60282;43.862;18.430;2023-08-30T06:28:48;20.60;99.90
63771;DHT22;60282;43.862;18.430;2023-08-30T06:31:18;20.70;99.90
63771;DHT22;60282;43.862;18.430;2023-08-30T06:33:47;20.90;99.90
63771;DHT22;60282;43.862;18.430;2023-08-30T06:36:14;20.90;99.90
63771;DHT22;60282;43.862;18.430;2023-08-30T06:38:43;20.90;99.90
63771;DHT22;60282;43.862;18.430;2023-08-30T06:41:09;20.80;99.90
63771;DHT22;60282;43.862;18.430;2023-08-30T06:43:34;20.80;99.90
63771;DHT22;60282;43.862;18.430;2023-08-30T06:46:01;20.80;99.90
63771;DHT22;60282;43.862;18.430;2023-08-30T06:48:27;21.10;99.90
63771;DHT22;60282;43.862;18.430;2023-08-30T06:50:57;21.40;99.90
63771;DHT22;60282;43.862;18.430;2023-08-30T06:53:28;21.20;99.90
63771;DHT22;60282;43.862;18.430;2023-08-30T06:55:58;21.50;99.90
63771;DHT22;60282;43.862;18.430;2023-08-30T06:58:27;21.40;99.90
63771;DHT22;60282;43.862;18.430;2023-08-30T07:00:57;18.30;99.90
63771;DHT22;60282;43.862;18.430;2023-08-30T07:03:22;20.70;99.90
63771;DHT22;60282;43.862;18.430;2023-08-30T07:05:51;21.50;99.90
63771;DHT22;60282;43.862;18.430;2023-08-30T07:10:43;21.70;99.90
63771;DHT22;60282;43.862;18.430;2023-08-30T07:15:44;21.70;99.90
63771;DHT22;60282;43.862;18.430;2023-08-30T07:18:11;21.50;99.90
63771;DHT22;60282;43.862;18.430;2023-08-30T07:20:39;21.60;99.90
63771;DHT22;60282;43.862;18.430;2023-08-30T07:23:08;21.80;99.90
63771;DHT22;60282;43.862;18.430;2023-08-30T07:25:41;21.80;99.90
63771;DHT22;60282;43.862;18.430;2023-08-30T07:28:07;21.80;99.90
63771;DHT22;60282;43.862;18.430;2023-08-30T07:30:33;22.00;99.90
63771;DHT22;60282;43.862;18.430;2023-08-30T07:35:33;22.10;99.80
63771;DHT22;60282;43.862;18.430;2023-08-30T07:37:59;22.10;99.90
63771;DHT22;60282;43.862;18.430;2023-08-30T07:40:28;22.10;99.90
63771;DHT22;60282;43.862;18.430;2023-08-30T07:42:54;21.90;99.90
63771;DHT22;60282;43.862;18.430;2023-08-30T07:45:20;22.00;99.50
63771;DHT22;60282;43.862;18.430;2023-08-30T07:47:48;22.20;99.90
63771;DHT22;60282;43.862;18.430;2023-08-30T07:52:45;22.40;99.90
63771;DHT22;60282;43.862;18.430;2023-08-30T07:57:40;22.70;99.90
63771;DHT22;60282;43.862;18.430;2023-08-30T08:00:08;22.80;99.90
63771;DHT22;60282;43.862;18.430;2023-08-30T08:02:40;22.90;99.90
63771;DHT22;60282;43.862;18.430;2023-08-30T08:05:06;25.20;99.10
63771;DHT22;60282;43.862;18.430;2023-08-30T08:07:38;23.00;96.60
63771;DHT22;60282;43.862;18.430;2023-08-30T08:10:05;22.40;97.60
63771;DHT22;60282;43.862;18.430;2023-08-30T08:12:33;23.10;97.50
63771;DHT22;60282;43.862;18.430;2023-08-30T08:14:59;23.30;96.30
63771;DHT22;60282;43.862;18.430;2023-08-30T08:17:25;23.20;96.50
63771;DHT22;60282;43.862;18.430;2023-08-30T08:19:51;23.20;96.60
63771;DHT22;60282;43.862;18.430;2023-08-30T08:22:25;21.10;95.10
63771;DHT22;60282;43.862;18.430;2023-08-30T08:24:51;23.90;94.90
63771;DHT22;60282;43.862;18.430;2023-08-30T08:27:19;23.80;94.00
63771;DHT22;60282;43.862;18.430;2023-08-30T08:29:47;23.90;93.60
63771;DHT22;60282;43.862;18.430;2023-08-30T08:32:14;23.70;93.90
63771;DHT22;60282;43.862;18.430;2023-08-30T08:34:41;23.90;93.10
63771;DHT22;60282;43.862;18.430;2023-08-30T08:37:16;24.00;92.80
63771;DHT22;60282;43.862;18.430;2023-08-30T08:42:12;24.30;90.90
63771;DHT22;60282;43.862;18.430;2023-08-30T08:44:41;24.70;91.90
63771;DHT22;60282;43.862;18.430;2023-08-30T08:47:08;26.90;91.80
63771;DHT22;60282;43.862;18.430;2023-08-30T08:49:33;24.30;91.20
63771;DHT22;60282;43.862;18.430;2023-08-30T08:52:00;24.40;91.00
63771;DHT22;60282;43.862;18.430;2023-08-30T08:54:30;24.00;90.40
63771;DHT22;60282;43.862;18.430;2023-08-30T08:56:56;24.40;91.00
63771;DHT22;60282;43.862;18.430;2023-08-30T08:59:24;24.70;90.20
63771;DHT22;60282;43.862;18.430;2023-08-30T09:01:50;23.40;87.70
63771;DHT22;60282;43.862;18.430;2023-08-30T09:04:16;22.60;84.70
63771;DHT22;60282;43.862;18.430;2023-08-30T09:06:42;25.60;86.00
63771;DHT22;60282;43.862;18.430;2023-08-30T09:09:11;25.50;84.70
63771;DHT22;60282;43.862;18.430;2023-08-30T09:11:38;25.50;83.20
63771;DHT22;60282;43.862;18.430;2023-08-30T09:14:04;25.80;84.40
63771;DHT22;60282;43.862;18.430;2023-08-30T09:16:31;26.20;84.20
63771;DHT22;60282;43.862;18.430;2023-08-30T09:19:06;26.20;82.40
63771;DHT22;60282;43.862;18.430;2023-08-30T09:21:33;26.40;81.50
63771;DHT22;60282;43.862;18.430;2023-08-30T09:24:06;26.70;80.60
63771;DHT22;60282;43.862;18.430;2023-08-30T09:26:35;26.70;82.50
63771;DHT22;60282;43.862;18.430;2023-08-30T09:29:05;25.40;80.90
63771;DHT22;60282;43.862;18.430;2023-08-30T09:31:35;26.30;81.20
63771;DHT22;60282;43.862;18.430;2023-08-30T09:34:07;26.40;80.30
63771;DHT22;60282;43.862;18.430;2023-08-30T09:36:38;23.60;78.70
63771;DHT22;60282;43.862;18.430;2023-08-30T09:41:31;26.50;80.90
63771;DHT22;60282;43.862;18.430;2023-08-30T09:44:06;25.00;79.30
63771;DHT22;60282;43.862;18.430;2023-08-30T09:46:49;26.00;79.90
63771;DHT22;60282;43.862;18.430;2023-08-30T09:49:19;26.40;80.60
63771;DHT22;60282;43.862;18.430;2023-08-30T09:51:47;25.90;81.40
63771;DHT22;60282;43.862;18.430;2023-08-30T09:54:16;25.90;81.60
63771;DHT22;60282;43.862;18.430;2023-08-30T09:56:43;26.60;80.90
63771;DHT22;60282;43.862;18.430;2023-08-30T09:59:11;26.70;81.60
63771;DHT22;60282;43.862;18.430;2023-08-30T10:01:40;26.40;80.30
63771;DHT22;60282;43.862;18.430;2023-08-30T10:04:10;26.40;81.80
63771;DHT22;60282;43.862;18.430;2023-08-30T10:06:40;26.50;82.50
63771;DHT22;60282;43.862;18.430;2023-08-30T10:09:07;26.00;82.30
63771;DHT22;60282;43.862;18.430;2023-08-30T10:11:35;26.10;80.40
63771;DHT22;60282;43.862;18.430;2023-08-30T10:14:03;26.00;81.20
63771;DHT22;60282;43.862;18.430;2023-08-30T10:16:42;25.90;80.90
63771;DHT22;60282;43.862;18.430;2023-08-30T10:19:15;26.40;82.50
63771;DHT22;60282;43.862;18.430;2023-08-30T10:22:05;25.80;83.00
63771;DHT22;60282;43.862;18.430;2023-08-30T10:24:39;26.20;81.80
63771;DHT22;60282;43.862;18.430;2023-08-30T10:27:08;25.90;80.80
63771;DHT22;60282;43.862;18.430;2023-08-30T10:29:36;26.10;82.60
63771;DHT22;60282;43.862;18.430;2023-08-30T10:32:04;26.40;79.90
63771;DHT22;60282;43.862;18.430;2023-08-30T10:34:35;26.50;80.90
63771;DHT22;60282;43.862;18.430;2023-08-30T10:37:03;26.40;79.70
63771;DHT22;60282;43.862;18.430;2023-08-30T10:39:40;26.90;80.70
63771;DHT22;60282;43.862;18.430;2023-08-30T10:42:09;26.30;80.50
63771;DHT22;60282;43.862;18.430;2023-08-30T10:47:27;26.10;79.10
63771;DHT22;60282;43.862;18.430;2023-08-30T10:49:58;26.10;79.90
63771;DHT22;60282;43.862;18.430;2023-08-30T10:52:26;26.60;81.00
63771;DHT22;60282;43.862;18.430;2023-08-30T10:54:53;27.10;80.60
63771;DHT22;60282;43.862;18.430;2023-08-30T10:57:20;27.30;80.30
63771;DHT22;60282;43.862;18.430;2023-08-30T11:04:59;27.70;75.70
63771;DHT22;60282;43.862;18.430;2023-08-30T11:09:55;27.60;77.50
63771;DHT22;60282;43.862;18.430;2023-08-30T11:12:22;28.00;76.90
63771;DHT22;60282;43.862;18.430;2023-08-30T11:14:49;28.00;78.20
63771;DHT22;60282;43.862;18.430;2023-08-30T11:17:18;27.90;77.70
63771;DHT22;60282;43.862;18.430;2023-08-30T11:19:45;27.70;76.80
63771;DHT22;60282;43.862;18.430;2023-08-30T11:22:17;27.20;77.70
63771;DHT22;60282;43.862;18.430;2023-08-30T11:24:43;27.00;77.00
63771;DHT22;60282;43.862;18.430;2023-08-30T11:27:11;27.00;76.90
63771;DHT22;60282;43.862;18.430;2023-08-30T11:29:39;26.60;77.70
63771;DHT22;60282;43.862;18.430;2023-08-30T11:32:07;26.40;78.50
63771;DHT22;60282;43.862;18.430;2023-08-30T11:39:28;26.60;78.50
63771;DHT22;60282;43.862;18.430;2023-08-30T11:41:54;25.90;79.90
63771;DHT22;60282;43.862;18.430;2023-08-30T11:44:23;25.90;81.50
63771;DHT22;60282;43.862;18.430;2023-08-30T11:47:06;26.10;82.20
63771;DHT22;60282;43.862;18.430;2023-08-30T11:49:32;26.00;78.80
63771;DHT22;60282;43.862;18.430;2023-08-30T11:51:59;26.00;80.80
63771;DHT22;60282;43.862;18.430;2023-08-30T11:54:26;25.00;78.60
63771;DHT22;60282;43.862;18.430;2023-08-30T11:56:52;26.10;78.80
63771;DHT22;60282;43.862;18.430;2023-08-30T11:59:22;26.40;78.50
63771;DHT22;60282;43.862;18.430;2023-08-30T12:01:48;26.60;77.30
63771;DHT22;60282;43.862;18.430;2023-08-30T12:04:15;26.80;77.00
63771;DHT22;60282;43.862;18.430;2023-08-30T12:06:41;27.20;76.60
63771;DHT22;60282;43.862;18.430;2023-08-30T12:09:14;27.70;76.80
63771;DHT22;60282;43.862;18.430;2023-08-30T12:11:41;28.10;75.30
63771;DHT22;60282;43.862;18.430;2023-08-30T12:14:08;28.70;75.20
63771;DHT22;60282;43.862;18.430;2023-08-30T12:16:36;28.40;73.90
63771;DHT22;60282;43.862;18.430;2023-08-30T12:19:11;28.50;73.30
63771;DHT22;60282;43.862;18.430;2023-08-30T12:21:46;28.40;73.60
63771;DHT22;60282;43.862;18.430;2023-08-30T12:24:12;28.00;73.80
63771;DHT22;60282;43.862;18.430;2023-08-30T12:26:38;27.70;74.30
63771;DHT22;60282;43.862;18.430;2023-08-30T12:29:08;27.50;74.70
63771;DHT22;60282;43.862;18.430;2023-08-30T12:31:34;27.20;75.20
63771;DHT22;60282;43.862;18.430;2023-08-30T12:34:00;27.00;76.20
63771;DHT22;60282;43.862;18.430;2023-08-30T12:36:26;26.70;76.30
63771;DHT22;60282;43.862;18.430;2023-08-30T12:38:52;26.50;76.30
63771;DHT22;60282;43.862;18.430;2023-08-30T12:41:21;26.20;77.30
63771;DHT22;60282;43.862;18.430;2023-08-30T12:43:51;26.00;78.30
63771;DHT22;60282;43.862;18.430;2023-08-30T12:46:18;25.60;80.80
63771;DHT22;60282;43.862;18.430;2023-08-30T12:51:16;25.00;81.20
63771;DHT22;60282;43.862;18.430;2023-08-30T12:53:42;25.60;83.70
63771;DHT22;60282;43.862;18.430;2023-08-30T13:01:01;24.10;85.40
63771;DHT22;60282;43.862;18.430;2023-08-30T13:03:27;24.10;85.20
63771;DHT22;60282;43.862;18.430;2023-08-30T13:05:53;23.80;84.80
63771;DHT22;60282;43.862;18.430;2023-08-30T13:08:27;23.70;85.10
63771;DHT22;60282;43.862;18.430;2023-08-30T13:10:53;23.70;86.10
63771;DHT22;60282;43.862;18.430;2023-08-30T13:13:19;23.60;86.60
63771;DHT22;60282;43.862;18.430;2023-08-30T13:18:14;23.60;86.50
63771;DHT22;60282;43.862;18.430;2023-08-30T13:20:41;23.90;87.00
63771;DHT22;60282;43.862;18.430;2023-08-30T13:25:39;23.70;85.20
63771;DHT22;60282;43.862;18.430;2023-08-30T13:28:05;24.40;85.40
63771;DHT22;60282;43.862;18.430;2023-08-30T13:30:31;24.50;86.10
63771;DHT22;60282;43.862;18.430;2023-08-30T13:32:57;24.60;85.40
63771;DHT22;60282;43.862;18.430;2023-08-30T13:35:23;25.30;84.00
63771;DHT22;60282;43.862;18.430;2023-08-30T13:37:50;26.20;82.90
63771;DHT22;60282;43.862;18.430;2023-08-30T13:40:17;27.50;83.20
63771;DHT22;60282;43.862;18.430;2023-08-30T13:42:45;28.50;78.70
63771;DHT22;60282;43.862;18.430;2023-08-30T13:45:11;29.30;78.60
63771;DHT22;60282;43.862;18.430;2023-08-30T13:47:39;29.80;75.40
63771;DHT22;60282;43.862;18.430;2023-08-30T13:50:06;29.90;73.30
63771;DHT22;60282;43.862;18.430;2023-08-30T13:52:32;30.30;72.70
63771;DHT22;60282;43.862;18.430;2023-08-30T13:54:59;30.40;72.30
63771;DHT22;60282;43.862;18.430;2023-08-30T13:57:24;30.60;71.20
63771;DHT22;60282;43.862;18.430;2023-08-30T13:59:51;30.30;71.80
63771;DHT22;60282;43.862;18.430;2023-08-30T14:02:17;29.70;70.50
63771;DHT22;60282;43.862;18.430;2023-08-30T14:04:43;29.30;72.20
63771;DHT22;60282;43.862;18.430;2023-08-30T14:07:09;29.60;71.60
63771;DHT22;60282;43.862;18.430;2023-08-30T14:09:38;28.90;72.50
63771;DHT22;60282;43.862;18.430;2023-08-30T14:12:04;28.60;73.10
63771;DHT22;60282;43.862;18.430;2023-08-30T14:14:31;28.60;73.50
63771;DHT22;60282;43.862;18.430;2023-08-30T14:16:57;27.60;75.90
63771;DHT22;60282;43.862;18.430;2023-08-30T14:19:24;27.20;75.50
63771;DHT22;60282;43.862;18.430;2023-08-30T14:21:50;26.70;77.00
63771;DHT22;60282;43.862;18.430;2023-08-30T14:26:46;26.50;76.40
63771;DHT22;60282;43.862;18.430;2023-08-30T14:29:12;26.20;78.50
63771;DHT22;60282;43.862;18.430;2023-08-30T14:31:38;25.90;80.40
63771;DHT22;60282;43.862;18.430;2023-08-30T14:34:03;26.10;79.60
63771;DHT22;60282;43.862;18.430;2023-08-30T14:36:29;26.40;81.30
63771;DHT22;60282;43.862;18.430;2023-08-30T14:38:55;25.60;82.00
63771;DHT22;60282;43.862;18.430;2023-08-30T14:41:21;25.60;82.60
63771;DHT22;60282;43.862;18.430;2023-08-30T14:46:13;25.30;81.30
63771;DHT22;60282;43.862;18.430;2023-08-30T14:48:41;25.20;82.60
63771;DHT22;60282;43.862;18.430;2023-08-30T14:51:08;25.30;82.00
63771;DHT22;60282;43.862;18.430;2023-08-30T14:53:34;25.20;81.50
63771;DHT22;60282;43.862;18.430;2023-08-30T14:55:59;25.00;82.80
63771;DHT22;60282;43.862;18.430;2023-08-30T14:58:25;24.80;83.70
63771;DHT22;60282;43.862;18.430;2023-08-30T15:00:51;24.30;86.10
63771;DHT22;60282;43.862;18.430;2023-08-30T15:03:17;23.70;89.10
63771;DHT22;60282;43.862;18.430;2023-08-30T15:05:43;22.80;89.60
63771;DHT22;60282;43.862;18.430;2023-08-30T15:08:09;24.00;90.10
63771;DHT22;60282;43.862;18.430;2023-08-30T15:10:38;23.30;90.80
63771;DHT22;60282;43.862;18.430;2023-08-30T15:13:04;23.30;90.80
63771;DHT22;60282;43.862;18.430;2023-08-30T15:15:30;23.10;92.70
63771;DHT22;60282;43.862;18.430;2023-08-30T15:17:58;23.20;91.20
63771;DHT22;60282;43.862;18.430;2023-08-30T15:20:24;23.10;91.90
63771;DHT22;60282;43.862;18.430;2023-08-30T15:22:51;22.90;93.10
63771;DHT22;60282;43.862;18.430;2023-08-30T15:25:18;23.10;92.50
63771;DHT22;60282;43.862;18.430;2023-08-30T15:27:44;22.50;92.60
63771;DHT22;60282;43.862;18.430;2023-08-30T15:30:11;23.20;93.30
63771;DHT22;60282;43.862;18.430;2023-08-30T15:35:04;22.90;92.10
63771;DHT22;60282;43.862;18.430;2023-08-30T15:37:30;23.00;92.80
63771;DHT22;60282;43.862;18.430;2023-08-30T15:40:00;23.00;93.80
63771;DHT22;60282;43.862;18.430;2023-08-30T15:42:31;23.10;92.60
63771;DHT22;60282;43.862;18.430;2023-08-30T15:44:57;23.30;92.10
63771;DHT22;60282;43.862;18.430;2023-08-30T15:47:22;23.60;93.70
63771;DHT22;60282;43.862;18.430;2023-08-30T15:49:48;23.90;93.20
63771;DHT22;60282;43.862;18.430;2023-08-30T15:52:14;24.20;92.60
63771;DHT22;60282;43.862;18.430;2023-08-30T15:54:42;22.00;91.40
63771;DHT22;60282;43.862;18.430;2023-08-30T15:57:08;25.30;91.00
63771;DHT22;60282;43.862;18.430;2023-08-30T15:59:34;25.00;90.50
63771;DHT22;60282;43.862;18.430;2023-08-30T16:02:09;24.80;90.00
63771;DHT22;60282;43.862;18.430;2023-08-30T16:04:37;24.50;90.40
63771;DHT22;60282;43.862;18.430;2023-08-30T16:07:05;23.70;91.10
63771;DHT22;60282;43.862;18.430;2023-08-30T16:09:33;23.50;91.00
63771;DHT22;60282;43.862;18.430;2023-08-30T16:11:58;23.60;91.50
63771;DHT22;60282;43.862;18.430;2023-08-30T16:14:25;23.50;92.40
63771;DHT22;60282;43.862;18.430;2023-08-30T16:16:52;23.40;93.50
63771;DHT22;60282;43.862;18.430;2023-08-30T16:19:18;23.40;92.10
63771;DHT22;60282;43.862;18.430;2023-08-30T16:21:44;22.90;92.20
63771;DHT22;60282;43.862;18.430;2023-08-30T16:24:10;23.30;92.90
63771;DHT22;60282;43.862;18.430;2023-08-30T16:26:36;22.50;92.80
63771;DHT22;60282;43.862;18.430;2023-08-30T16:29:02;22.30;93.60
63771;DHT22;60282;43.862;18.430;2023-08-30T16:31:31;22.20;93.40
63771;DHT22;60282;43.862;18.430;2023-08-30T16:33:57;22.20;94.10
63771;DHT22;60282;43.862;18.430;2023-08-30T16:36:22;21.90;94.60
63771;DHT22;60282;43.862;18.430;2023-08-30T16:38:48;21.90;94.70